AUS102 SLLP-SGAS
Flight info
| Callsign | AUS102 |
|---|---|
| Flight time | 1h 54m |
| Altitude | 35000 |
| Route | VAPAS UW18 PAMAR/N0462F340 UN525 IVSOS/N0460F350 DCT ISAGU |
| Aircraft | B738/M-SDE2E3FGHIRWXY/LB1 |
Departure
| Time | 2026-04-13 19:28 |
|---|---|
| Airport | El Alto International Airport (SLLP) |
Arrival
| Time | 2026-04-13 21:23 |
|---|---|
| Airport | Silvio Pettirossi International Airport (SGAS) |
| Time | Latitude | Longitude | Altitude | Speed | Heading |
|---|---|---|---|---|---|
| 2026-04-13 19:25 | -16.51228 | -68.17425 | 13323 ft | 24 kts | 130° |
| 2026-04-13 19:25 | -16.51282 | -68.17376 | 13325 ft | 0 kts | 152° |
| 2026-04-13 19:26 | -16.51283 | -68.17375 | 13329 ft | 1 kts | 152° |
| 2026-04-13 19:27 | -16.51299 | -68.17368 | 13326 ft | 6 kts | 159° |
| 2026-04-13 19:27 | -16.51365 | -68.17360 | 13330 ft | 12 kts | 197° |
| 2026-04-13 19:27 | -16.51394 | -68.17444 | 13323 ft | 16 kts | 272° |
| 2026-04-13 19:27 | -16.51378 | -68.17918 | 13296 ft | 86 kts | 272° |
| 2026-04-13 19:28 | -16.51350 | -68.18723 | 13250 ft | 135 kts | 271° |
| 2026-04-13 19:28 | -16.51326 | -68.19454 | 13218 ft | 163 kts | 271° |
| 2026-04-13 19:28 | -16.51253 | -68.20767 | 13234 ft | 193 kts | 274° |
| 2026-04-13 19:28 | -16.51166 | -68.22143 | 14016 ft | 189 kts | 276° |
| 2026-04-13 19:29 | -16.51107 | -68.23579 | 14236 ft | 211 kts | 271° |
| 2026-04-13 19:29 | -16.51081 | -68.25189 | 14275 ft | 237 kts | 272° |
| 2026-04-13 19:29 | -16.51050 | -68.26942 | 14590 ft | 248 kts | 271° |
| 2026-04-13 19:29 | -16.51013 | -68.28785 | 14849 ft | 261 kts | 271° |
| 2026-04-13 19:30 | -16.51035 | -68.30719 | 14980 ft | 275 kts | 262° |
| 2026-04-13 19:30 | -16.51752 | -68.32629 | 15069 ft | 295 kts | 237° |
| 2026-04-13 19:30 | -16.53264 | -68.34186 | 15175 ft | 319 kts | 215° |
| 2026-04-13 19:30 | -16.55386 | -68.35069 | 15287 ft | 340 kts | 191° |
| 2026-04-13 19:31 | -16.57821 | -68.35065 | 15322 ft | 364 kts | 169° |
| 2026-04-13 19:31 | -16.60219 | -68.34120 | 15573 ft | 377 kts | 149° |
| 2026-04-13 19:31 | -16.62217 | -68.32296 | 15799 ft | 388 kts | 126° |
| 2026-04-13 19:31 | -16.63488 | -68.29801 | 16213 ft | 393 kts | 111° |
| 2026-04-13 19:32 | -16.64375 | -68.27102 | 16766 ft | 394 kts | 107° |
| 2026-04-13 19:32 | -16.65177 | -68.24363 | 17295 ft | 395 kts | 107° |
| 2026-04-13 19:32 | -16.66007 | -68.21615 | 17728 ft | 399 kts | 108° |
| 2026-04-13 19:32 | -16.66902 | -68.18846 | 18119 ft | 404 kts | 109° |
| 2026-04-13 19:33 | -16.67847 | -68.16074 | 18553 ft | 408 kts | 110° |
| 2026-04-13 19:33 | -16.68828 | -68.13284 | 18899 ft | 412 kts | 111° |
| 2026-04-13 19:33 | -16.69819 | -68.10507 | 19252 ft | 415 kts | 111° |
| 2026-04-13 19:34 | -16.71845 | -68.04850 | 20031 ft | 417 kts | 111° |
| 2026-04-13 19:34 | -16.72863 | -68.02001 | 20335 ft | 421 kts | 111° |
| 2026-04-13 19:34 | -16.73888 | -67.99127 | 20632 ft | 424 kts | 111° |
| 2026-04-13 19:34 | -16.75214 | -67.96401 | 21024 ft | 422 kts | 129° |
| 2026-04-13 19:35 | -16.77177 | -67.94128 | 21398 ft | 422 kts | 135° |
| 2026-04-13 19:35 | -16.79223 | -67.91900 | 21672 ft | 427 kts | 135° |
| 2026-04-13 19:35 | -16.81286 | -67.89648 | 21963 ft | 431 kts | 135° |
| 2026-04-13 19:35 | -16.83360 | -67.87366 | 22375 ft | 431 kts | 134° |
| 2026-04-13 19:36 | -16.85409 | -67.85093 | 22822 ft | 431 kts | 134° |
| 2026-04-13 19:36 | -16.87435 | -67.82832 | 23185 ft | 432 kts | 134° |
| 2026-04-13 19:36 | -16.89501 | -67.80513 | 23423 ft | 438 kts | 134° |
| 2026-04-13 19:36 | -16.91585 | -67.78176 | 23651 ft | 442 kts | 134° |
| 2026-04-13 19:37 | -16.93692 | -67.75813 | 23925 ft | 444 kts | 134° |
| 2026-04-13 19:37 | -16.95802 | -67.73444 | 24209 ft | 446 kts | 134° |
| 2026-04-13 19:37 | -16.97922 | -67.71064 | 24437 ft | 449 kts | 134° |
| 2026-04-13 19:37 | -17.00048 | -67.68680 | 24810 ft | 447 kts | 134° |
| 2026-04-13 19:38 | -17.02171 | -67.66291 | 25080 ft | 450 kts | 134° |
| 2026-04-13 19:38 | -17.04313 | -67.63880 | 25283 ft | 454 kts | 134° |
| 2026-04-13 19:38 | -17.06473 | -67.61451 | 25495 ft | 457 kts | 134° |
| 2026-04-13 19:38 | -17.08628 | -67.59025 | 25940 ft | 455 kts | 134° |
| 2026-04-13 19:39 | -17.10790 | -67.56591 | 26208 ft | 457 kts | 134° |
| 2026-04-13 19:39 | -17.12965 | -67.54143 | 26443 ft | 460 kts | 134° |
| 2026-04-13 19:39 | -17.15131 | -67.51711 | 26645 ft | 464 kts | 134° |
| 2026-04-13 19:39 | -17.17349 | -67.49243 | 26851 ft | 467 kts | 134° |
| 2026-04-13 19:40 | -17.19583 | -67.46769 | 27095 ft | 469 kts | 134° |
| 2026-04-13 19:40 | -17.21821 | -67.44293 | 27458 ft | 467 kts | 134° |
| 2026-04-13 19:40 | -17.24059 | -67.41816 | 27707 ft | 469 kts | 134° |
| 2026-04-13 19:40 | -17.26311 | -67.39320 | 27941 ft | 472 kts | 134° |
| 2026-04-13 19:41 | -17.28570 | -67.36814 | 28147 ft | 475 kts | 134° |
| 2026-04-13 19:41 | -17.30841 | -67.34290 | 28374 ft | 477 kts | 134° |
| 2026-04-13 19:41 | -17.33117 | -67.31759 | 28619 ft | 478 kts | 134° |
| 2026-04-13 19:42 | -17.37685 | -67.26676 | 29102 ft | 481 kts | 134° |
| 2026-04-13 19:42 | -17.39985 | -67.24115 | 29310 ft | 483 kts | 134° |
| 2026-04-13 19:42 | -17.42262 | -67.21579 | 29507 ft | 485 kts | 134° |
| 2026-04-13 19:42 | -17.44573 | -67.19003 | 29750 ft | 486 kts | 134° |
| 2026-04-13 19:43 | -17.46893 | -67.16417 | 29968 ft | 487 kts | 134° |
| 2026-04-13 19:43 | -17.49217 | -67.13825 | 30173 ft | 488 kts | 134° |
| 2026-04-13 19:43 | -17.51544 | -67.11229 | 30326 ft | 490 kts | 134° |
| 2026-04-13 19:43 | -17.53885 | -67.08617 | 30476 ft | 492 kts | 134° |
| 2026-04-13 19:44 | -17.56229 | -67.06000 | 30691 ft | 493 kts | 134° |
| 2026-04-13 19:44 | -17.58572 | -67.03382 | 30935 ft | 491 kts | 134° |
| 2026-04-13 19:44 | -17.60913 | -67.00767 | 31230 ft | 490 kts | 133° |
| 2026-04-13 19:44 | -17.63128 | -66.98291 | 31457 ft | 491 kts | 133° |
| 2026-04-13 19:45 | -17.65468 | -66.95675 | 31674 ft | 492 kts | 133° |
| 2026-04-13 19:45 | -17.67784 | -66.93083 | 31922 ft | 492 kts | 133° |
| 2026-04-13 19:45 | -17.70123 | -66.90464 | 32167 ft | 492 kts | 133° |
| 2026-04-13 19:45 | -17.72471 | -66.87836 | 32338 ft | 494 kts | 133° |
| 2026-04-13 19:46 | -17.74822 | -66.85203 | 32556 ft | 494 kts | 133° |
| 2026-04-13 19:46 | -17.77172 | -66.82570 | 32819 ft | 493 kts | 133° |
| 2026-04-13 19:46 | -17.79518 | -66.79940 | 33083 ft | 493 kts | 133° |
| 2026-04-13 19:46 | -17.81858 | -66.77316 | 33295 ft | 493 kts | 133° |
| 2026-04-13 19:47 | -17.84203 | -66.74685 | 33503 ft | 493 kts | 133° |
| 2026-04-13 19:47 | -17.86549 | -66.72051 | 33717 ft | 493 kts | 133° |
| 2026-04-13 19:47 | -17.88890 | -66.69423 | 33960 ft | 492 kts | 133° |
| 2026-04-13 19:47 | -17.91228 | -66.66797 | 34158 ft | 492 kts | 133° |
| 2026-04-13 19:48 | -17.93539 | -66.64200 | 34329 ft | 493 kts | 133° |
| 2026-04-13 19:48 | -17.95880 | -66.61569 | 34528 ft | 493 kts | 133° |
| 2026-04-13 19:48 | -17.98237 | -66.58917 | 34756 ft | 492 kts | 134° |
| 2026-04-13 19:48 | -18.00544 | -66.56321 | 34871 ft | 491 kts | 134° |
| 2026-04-13 19:49 | -18.05154 | -66.51130 | 34904 ft | 484 kts | 134° |
| 2026-04-13 19:49 | -18.09768 | -66.45932 | 34914 ft | 489 kts | 134° |
| 2026-04-13 19:50 | -18.14431 | -66.40673 | 34920 ft | 494 kts | 134° |
| 2026-04-13 19:50 | -18.19133 | -66.35366 | 34899 ft | 497 kts | 134° |
| 2026-04-13 19:51 | -18.23846 | -66.30040 | 34886 ft | 495 kts | 134° |
| 2026-04-13 19:51 | -18.28506 | -66.24770 | 34886 ft | 490 kts | 134° |
| 2026-04-13 19:52 | -18.33149 | -66.19517 | 34899 ft | 489 kts | 134° |
| 2026-04-13 19:52 | -18.37795 | -66.14261 | 34933 ft | 491 kts | 134° |
| 2026-04-13 19:53 | -18.42448 | -66.08977 | 34906 ft | 491 kts | 134° |
| 2026-04-13 19:53 | -18.47169 | -66.03856 | 34902 ft | 488 kts | 144° |
| 2026-04-13 19:54 | -18.49997 | -66.01933 | 34931 ft | 482 kts | 156° |
| 2026-04-13 19:54 | -18.53101 | -66.00611 | 34927 ft | 478 kts | 167° |
| 2026-04-13 19:54 | -18.59460 | -65.99466 | 34930 ft | 475 kts | 176° |
| 2026-04-13 19:55 | -18.66027 | -65.98537 | 34938 ft | 476 kts | 176° |
| 2026-04-13 19:55 | -18.72592 | -65.97557 | 34944 ft | 477 kts | 175° |
| 2026-04-13 19:56 | -18.79169 | -65.96533 | 34941 ft | 479 kts | 175° |
| 2026-04-13 19:56 | -18.85766 | -65.95495 | 34949 ft | 481 kts | 175° |
| 2026-04-13 19:57 | -18.92401 | -65.94450 | 34947 ft | 482 kts | 175° |
| 2026-04-13 19:57 | -18.99003 | -65.93413 | 34940 ft | 483 kts | 175° |
| 2026-04-13 19:58 | -19.05644 | -65.92365 | 34922 ft | 482 kts | 175° |
| 2026-04-13 19:58 | -19.12275 | -65.91327 | 34924 ft | 481 kts | 175° |
| 2026-04-13 19:59 | -19.18897 | -65.90282 | 34926 ft | 480 kts | 175° |
| 2026-04-13 19:59 | -19.25449 | -65.89249 | 34925 ft | 478 kts | 175° |
| 2026-04-13 20:00 | -19.32032 | -65.88211 | 34922 ft | 478 kts | 175° |
| 2026-04-13 20:00 | -19.38613 | -65.87174 | 34918 ft | 477 kts | 175° |
| 2026-04-13 20:01 | -19.45193 | -65.86156 | 34942 ft | 477 kts | 176° |
| 2026-04-13 20:01 | -19.51778 | -65.85145 | 34917 ft | 478 kts | 176° |
| 2026-04-13 20:02 | -19.58367 | -65.84130 | 34924 ft | 480 kts | 175° |
| 2026-04-13 20:02 | -19.61581 | -65.83258 | 34899 ft | 490 kts | 161° |
| 2026-04-13 20:02 | -19.64579 | -65.81492 | 34928 ft | 497 kts | 146° |
| 2026-04-13 20:03 | -19.67096 | -65.78961 | 34905 ft | 503 kts | 129° |
| 2026-04-13 20:03 | -19.69174 | -65.75954 | 34913 ft | 504 kts | 127° |
| 2026-04-13 20:03 | -19.73285 | -65.69900 | 34912 ft | 507 kts | 127° |
| 2026-04-13 20:04 | -19.77462 | -65.63840 | 34900 ft | 508 kts | 128° |
| 2026-04-13 20:04 | -19.81674 | -65.57804 | 34889 ft | 507 kts | 128° |
| 2026-04-13 20:05 | -19.85846 | -65.51849 | 34884 ft | 499 kts | 128° |
| 2026-04-13 20:05 | -19.89984 | -65.45936 | 34893 ft | 498 kts | 128° |
| 2026-04-13 20:06 | -19.94094 | -65.40054 | 34892 ft | 499 kts | 128° |
| 2026-04-13 20:06 | -19.98229 | -65.34126 | 34904 ft | 499 kts | 128° |
| 2026-04-13 20:07 | -20.02354 | -65.28205 | 34888 ft | 501 kts | 128° |
| 2026-04-13 20:07 | -20.06503 | -65.22243 | 34922 ft | 502 kts | 128° |
| 2026-04-13 20:08 | -20.10662 | -65.16264 | 34912 ft | 502 kts | 128° |
| 2026-04-13 20:08 | -20.14810 | -65.10291 | 34942 ft | 502 kts | 128° |
| 2026-04-13 20:09 | -20.18968 | -65.04298 | 34947 ft | 503 kts | 128° |
| 2026-04-13 20:09 | -20.23022 | -64.98452 | 34951 ft | 504 kts | 128° |
| 2026-04-13 20:10 | -20.27186 | -64.92439 | 34946 ft | 504 kts | 128° |
| 2026-04-13 20:10 | -20.31343 | -64.86430 | 34945 ft | 504 kts | 129° |
| 2026-04-13 20:11 | -20.35475 | -64.80452 | 34965 ft | 503 kts | 129° |
| 2026-04-13 20:11 | -20.39616 | -64.74452 | 34962 ft | 503 kts | 128° |
| 2026-04-13 20:12 | -20.43759 | -64.68445 | 34957 ft | 502 kts | 128° |
| 2026-04-13 20:12 | -20.47890 | -64.62448 | 34984 ft | 502 kts | 128° |
| 2026-04-13 20:13 | -20.52036 | -64.56426 | 34948 ft | 504 kts | 128° |
| 2026-04-13 20:13 | -20.55518 | -64.51361 | 34937 ft | 504 kts | 129° |
| 2026-04-13 20:14 | -20.59638 | -64.45365 | 34920 ft | 504 kts | 128° |
| 2026-04-13 20:14 | -20.63789 | -64.39316 | 34919 ft | 505 kts | 128° |
| 2026-04-13 20:15 | -20.67946 | -64.33250 | 34889 ft | 506 kts | 129° |
| 2026-04-13 20:15 | -20.72088 | -64.27200 | 34890 ft | 503 kts | 129° |
| 2026-04-13 20:16 | -20.76220 | -64.21161 | 34869 ft | 503 kts | 129° |
| 2026-04-13 20:16 | -20.80341 | -64.15132 | 34877 ft | 503 kts | 129° |
| 2026-04-13 20:17 | -20.84474 | -64.09076 | 34844 ft | 505 kts | 129° |
| 2026-04-13 20:17 | -20.88615 | -64.03002 | 34852 ft | 506 kts | 129° |
| 2026-04-13 20:18 | -20.92662 | -63.97067 | 34828 ft | 508 kts | 129° |
| 2026-04-13 20:18 | -20.96823 | -63.90948 | 34840 ft | 507 kts | 129° |
| 2026-04-13 20:19 | -21.00935 | -63.84897 | 34824 ft | 507 kts | 129° |
| 2026-04-13 20:19 | -21.05088 | -63.78781 | 34825 ft | 508 kts | 129° |
| 2026-04-13 20:20 | -21.09243 | -63.72647 | 34820 ft | 507 kts | 129° |
| 2026-04-13 20:20 | -21.13385 | -63.66534 | 34833 ft | 507 kts | 129° |
| 2026-04-13 20:21 | -21.17536 | -63.60406 | 34854 ft | 508 kts | 129° |
| 2026-04-13 20:21 | -21.21680 | -63.54279 | 34894 ft | 508 kts | 129° |
| 2026-04-13 20:22 | -21.25833 | -63.48129 | 34897 ft | 509 kts | 129° |
| 2026-04-13 20:22 | -21.29966 | -63.42001 | 34880 ft | 509 kts | 129° |
| 2026-04-13 20:23 | -21.34113 | -63.35846 | 34879 ft | 509 kts | 129° |
| 2026-04-13 20:23 | -21.38252 | -63.29695 | 34855 ft | 508 kts | 129° |
| 2026-04-13 20:24 | -21.42380 | -63.23554 | 34834 ft | 506 kts | 129° |
| 2026-04-13 20:24 | -21.46497 | -63.17425 | 34831 ft | 505 kts | 129° |
| 2026-04-13 20:25 | -21.50601 | -63.11307 | 34795 ft | 505 kts | 129° |
| 2026-04-13 20:25 | -21.54697 | -63.05195 | 34794 ft | 503 kts | 129° |
| 2026-04-13 20:26 | -21.58688 | -62.99232 | 34792 ft | 502 kts | 129° |
| 2026-04-13 20:26 | -21.62762 | -62.93139 | 34802 ft | 502 kts | 129° |
| 2026-04-13 20:27 | -21.66832 | -62.87045 | 34795 ft | 502 kts | 129° |
| 2026-04-13 20:27 | -21.70874 | -62.80986 | 34796 ft | 502 kts | 129° |
| 2026-04-13 20:28 | -21.74949 | -62.74871 | 34797 ft | 502 kts | 129° |
| 2026-04-13 20:28 | -21.79020 | -62.68756 | 34791 ft | 503 kts | 129° |
| 2026-04-13 20:29 | -21.83094 | -62.62629 | 34795 ft | 503 kts | 129° |
| 2026-04-13 20:29 | -21.87161 | -62.56504 | 34806 ft | 503 kts | 129° |
| 2026-04-13 20:30 | -21.91235 | -62.50364 | 34818 ft | 503 kts | 130° |
| 2026-04-13 20:30 | -21.95307 | -62.44219 | 34804 ft | 504 kts | 130° |
| 2026-04-13 20:31 | -21.99379 | -62.38067 | 34809 ft | 505 kts | 130° |
| 2026-04-13 20:31 | -22.03410 | -62.31970 | 34803 ft | 505 kts | 130° |
| 2026-04-13 20:32 | -22.07495 | -62.25784 | 34801 ft | 505 kts | 130° |
| 2026-04-13 20:32 | -22.11564 | -62.19615 | 34815 ft | 505 kts | 130° |
| 2026-04-13 20:33 | -22.15628 | -62.13446 | 34812 ft | 505 kts | 130° |
| 2026-04-13 20:33 | -22.19694 | -62.07269 | 34819 ft | 505 kts | 130° |
| 2026-04-13 20:34 | -22.23761 | -62.01082 | 34821 ft | 504 kts | 130° |
| 2026-04-13 20:34 | -22.27695 | -61.95091 | 34835 ft | 505 kts | 130° |
| 2026-04-13 20:35 | -22.31754 | -61.88902 | 34830 ft | 504 kts | 130° |
| 2026-04-13 20:35 | -22.35805 | -61.82718 | 34812 ft | 504 kts | 130° |
| 2026-04-13 20:36 | -22.39857 | -61.76526 | 34825 ft | 503 kts | 130° |
| 2026-04-13 20:36 | -22.43894 | -61.70349 | 34818 ft | 503 kts | 130° |
| 2026-04-13 20:37 | -22.47930 | -61.64167 | 34827 ft | 502 kts | 130° |
| 2026-04-13 20:37 | -22.51936 | -61.58025 | 34824 ft | 502 kts | 130° |
| 2026-04-13 20:38 | -22.55958 | -61.51849 | 34830 ft | 502 kts | 130° |
| 2026-04-13 20:38 | -22.59981 | -61.45665 | 34831 ft | 502 kts | 130° |
| 2026-04-13 20:39 | -22.63997 | -61.39485 | 34831 ft | 502 kts | 130° |
| 2026-04-13 20:39 | -22.68012 | -61.33299 | 34829 ft | 502 kts | 130° |
| 2026-04-13 20:40 | -22.72033 | -61.27096 | 34830 ft | 502 kts | 130° |
| 2026-04-13 20:40 | -22.76045 | -61.20900 | 34836 ft | 502 kts | 130° |
| 2026-04-13 20:41 | -22.80054 | -61.14701 | 34831 ft | 502 kts | 130° |
| 2026-04-13 20:41 | -22.84059 | -61.08501 | 34835 ft | 502 kts | 129° |
| 2026-04-13 20:42 | -22.88041 | -61.02329 | 34840 ft | 502 kts | 130° |
| 2026-04-13 20:42 | -22.91944 | -60.96273 | 34839 ft | 502 kts | 130° |
| 2026-04-13 20:43 | -22.95943 | -60.90059 | 34838 ft | 501 kts | 130° |
| 2026-04-13 20:43 | -22.99933 | -60.83853 | 34846 ft | 501 kts | 129° |
| 2026-04-13 20:44 | -23.03901 | -60.77674 | 34845 ft | 501 kts | 129° |
| 2026-04-13 20:44 | -23.07882 | -60.71467 | 34854 ft | 500 kts | 129° |
| 2026-04-13 20:45 | -23.11855 | -60.65264 | 34847 ft | 499 kts | 129° |
| 2026-04-13 20:46 | -23.17794 | -60.55979 | 34855 ft | 498 kts | 129° |
| 2026-04-13 20:46 | -23.21746 | -60.49793 | 34857 ft | 498 kts | 129° |
| 2026-04-13 20:47 | -23.25670 | -60.43641 | 34868 ft | 498 kts | 129° |
| 2026-04-13 20:47 | -23.29613 | -60.37452 | 34861 ft | 497 kts | 129° |
| 2026-04-13 20:48 | -23.33552 | -60.31263 | 34863 ft | 497 kts | 129° |
| 2026-04-13 20:48 | -23.37481 | -60.25081 | 34866 ft | 497 kts | 129° |
| 2026-04-13 20:49 | -23.41409 | -60.18894 | 34872 ft | 496 kts | 129° |
| 2026-04-13 20:49 | -23.45334 | -60.12705 | 34885 ft | 496 kts | 129° |
| 2026-04-13 20:50 | -23.49250 | -60.06521 | 34875 ft | 496 kts | 129° |
| 2026-04-13 20:50 | -23.53167 | -60.00330 | 34874 ft | 496 kts | 129° |
| 2026-04-13 20:51 | -23.56984 | -59.94287 | 34877 ft | 496 kts | 129° |
| 2026-04-13 20:51 | -23.60896 | -59.88088 | 34873 ft | 496 kts | 129° |
| 2026-04-13 20:52 | -23.64811 | -59.81875 | 34878 ft | 496 kts | 129° |
| 2026-04-13 20:52 | -23.68717 | -59.75670 | 34879 ft | 496 kts | 129° |
| 2026-04-13 20:53 | -23.72594 | -59.69503 | 34880 ft | 496 kts | 129° |
| 2026-04-13 20:53 | -23.76498 | -59.63286 | 34883 ft | 496 kts | 129° |
| 2026-04-13 20:54 | -23.80397 | -59.57069 | 34890 ft | 496 kts | 129° |
| 2026-04-13 20:54 | -23.84291 | -59.50850 | 34886 ft | 495 kts | 129° |
| 2026-04-13 20:55 | -23.88180 | -59.44634 | 34747 ft | 498 kts | 129° |
| 2026-04-13 20:55 | -23.90148 | -59.41490 | 34167 ft | 502 kts | 129° |
| 2026-04-13 20:55 | -23.92111 | -59.38347 | 33621 ft | 499 kts | 129° |
| 2026-04-13 20:55 | -23.94056 | -59.35227 | 33162 ft | 494 kts | 129° |
| 2026-04-13 20:56 | -23.95978 | -59.32142 | 32709 ft | 489 kts | 128° |
| 2026-04-13 20:56 | -23.97246 | -59.30106 | 32415 ft | 486 kts | 128° |
| 2026-04-13 20:56 | -23.99753 | -59.26080 | 31830 ft | 481 kts | 128° |
| 2026-04-13 20:56 | -24.01016 | -59.24052 | 31537 ft | 478 kts | 128° |
| 2026-04-13 20:57 | -24.02860 | -59.21090 | 31114 ft | 474 kts | 128° |
| 2026-04-13 20:57 | -24.04714 | -59.18111 | 30687 ft | 470 kts | 128° |
| 2026-04-13 20:57 | -24.07147 | -59.14199 | 30128 ft | 466 kts | 127° |
| 2026-04-13 20:57 | -24.08379 | -59.12216 | 29803 ft | 464 kts | 127° |
| 2026-04-13 20:58 | -24.10185 | -59.09308 | 29320 ft | 460 kts | 127° |
| 2026-04-13 20:58 | -24.11956 | -59.06454 | 28863 ft | 456 kts | 127° |
| 2026-04-13 20:58 | -24.13752 | -59.03557 | 28415 ft | 452 kts | 127° |
| 2026-04-13 20:58 | -24.15506 | -59.00727 | 27973 ft | 447 kts | 127° |
| 2026-04-13 20:59 | -24.17139 | -58.98092 | 27574 ft | 443 kts | 127° |
| 2026-04-13 20:59 | -24.18864 | -58.95311 | 27157 ft | 439 kts | 127° |
| 2026-04-13 20:59 | -24.20799 | -58.92766 | 26827 ft | 429 kts | 137° |
| 2026-04-13 20:59 | -24.22927 | -58.90532 | 26599 ft | 420 kts | 140° |
| 2026-04-13 21:00 | -24.25072 | -58.88388 | 26254 ft | 415 kts | 140° |
| 2026-04-13 21:00 | -24.27204 | -58.86273 | 25871 ft | 412 kts | 140° |
| 2026-04-13 21:00 | -24.29314 | -58.84161 | 25468 ft | 410 kts | 139° |
| 2026-04-13 21:00 | -24.31406 | -58.82041 | 25054 ft | 408 kts | 139° |
| 2026-04-13 21:01 | -24.33479 | -58.79919 | 24634 ft | 407 kts | 138° |
| 2026-04-13 21:01 | -24.35543 | -58.77791 | 24213 ft | 406 kts | 138° |
| 2026-04-13 21:01 | -24.37590 | -58.75671 | 23798 ft | 404 kts | 137° |
| 2026-04-13 21:01 | -24.39632 | -58.73553 | 23362 ft | 403 kts | 137° |
| 2026-04-13 21:02 | -24.41662 | -58.71444 | 22894 ft | 400 kts | 137° |
| 2026-04-13 21:02 | -24.43677 | -58.69349 | 22472 ft | 398 kts | 137° |
| 2026-04-13 21:02 | -24.45653 | -58.67294 | 22059 ft | 395 kts | 137° |
| 2026-04-13 21:02 | -24.47636 | -58.65231 | 21650 ft | 392 kts | 137° |
| 2026-04-13 21:03 | -24.49607 | -58.63180 | 21252 ft | 389 kts | 137° |
| 2026-04-13 21:03 | -24.51570 | -58.61138 | 20848 ft | 387 kts | 137° |
| 2026-04-13 21:03 | -24.53515 | -58.59112 | 20449 ft | 384 kts | 137° |
| 2026-04-13 21:03 | -24.55451 | -58.57095 | 20056 ft | 382 kts | 137° |
| 2026-04-13 21:04 | -24.57379 | -58.55086 | 19653 ft | 381 kts | 137° |
| 2026-04-13 21:04 | -24.59301 | -58.53082 | 19250 ft | 379 kts | 137° |
| 2026-04-13 21:04 | -24.61216 | -58.51084 | 18843 ft | 378 kts | 137° |
| 2026-04-13 21:04 | -24.63120 | -58.49098 | 18447 ft | 377 kts | 137° |
| 2026-04-13 21:05 | -24.64998 | -58.47137 | 18021 ft | 376 kts | 136° |
| 2026-04-13 21:05 | -24.66892 | -58.45159 | 17602 ft | 374 kts | 136° |
| 2026-04-13 21:05 | -24.68778 | -58.43187 | 17196 ft | 372 kts | 136° |
| 2026-04-13 21:05 | -24.70643 | -58.41237 | 16802 ft | 369 kts | 136° |
| 2026-04-13 21:06 | -24.72504 | -58.39291 | 16415 ft | 367 kts | 136° |
| 2026-04-13 21:06 | -24.74347 | -58.37363 | 16036 ft | 365 kts | 136° |
| 2026-04-13 21:06 | -24.76179 | -58.35441 | 15685 ft | 362 kts | 136° |
| 2026-04-13 21:06 | -24.77992 | -58.33532 | 15354 ft | 358 kts | 136° |
| 2026-04-13 21:07 | -24.79784 | -58.31643 | 15024 ft | 355 kts | 136° |
| 2026-04-13 21:07 | -24.81562 | -58.29769 | 14698 ft | 353 kts | 136° |
| 2026-04-13 21:07 | -24.83330 | -58.27912 | 14382 ft | 351 kts | 136° |
| 2026-04-13 21:07 | -24.85094 | -58.26062 | 14050 ft | 349 kts | 136° |
| 2026-04-13 21:08 | -24.86856 | -58.24214 | 13726 ft | 347 kts | 136° |
| 2026-04-13 21:08 | -24.88600 | -58.22384 | 13371 ft | 346 kts | 136° |
| 2026-04-13 21:08 | -24.90336 | -58.20560 | 13038 ft | 343 kts | 136° |
| 2026-04-13 21:08 | -24.92037 | -58.18771 | 12719 ft | 341 kts | 136° |
| 2026-04-13 21:09 | -24.93752 | -58.16968 | 12393 ft | 339 kts | 136° |
| 2026-04-13 21:09 | -24.95454 | -58.15177 | 12086 ft | 337 kts | 136° |
| 2026-04-13 21:09 | -24.97149 | -58.13393 | 11770 ft | 335 kts | 136° |
| 2026-04-13 21:09 | -24.98830 | -58.11623 | 11463 ft | 334 kts | 136° |
| 2026-04-13 21:10 | -25.00498 | -58.09866 | 11164 ft | 333 kts | 136° |
| 2026-04-13 21:10 | -25.02167 | -58.08107 | 10856 ft | 331 kts | 136° |
| 2026-04-13 21:10 | -25.03826 | -58.06358 | 10550 ft | 328 kts | 136° |
| 2026-04-13 21:10 | -25.05467 | -58.04627 | 10249 ft | 326 kts | 136° |
| 2026-04-13 21:11 | -25.07097 | -58.02907 | 9953 ft | 323 kts | 136° |
| 2026-04-13 21:11 | -25.08702 | -58.01213 | 9886 ft | 312 kts | 136° |
| 2026-04-13 21:11 | -25.10171 | -57.99661 | 9867 ft | 300 kts | 136° |
| 2026-04-13 21:11 | -25.11660 | -57.98090 | 9712 ft | 293 kts | 136° |
| 2026-04-13 21:12 | -25.13111 | -57.96555 | 9419 ft | 292 kts | 136° |
| 2026-04-13 21:12 | -25.14580 | -57.95003 | 9096 ft | 292 kts | 136° |
| 2026-04-13 21:12 | -25.16043 | -57.93456 | 8811 ft | 291 kts | 136° |
| 2026-04-13 21:12 | -25.17502 | -57.91912 | 8530 ft | 289 kts | 136° |
| 2026-04-13 21:13 | -25.18943 | -57.90387 | 8282 ft | 286 kts | 136° |
| 2026-04-13 21:13 | -25.20378 | -57.88868 | 8021 ft | 285 kts | 136° |
| 2026-04-13 21:13 | -25.21805 | -57.87357 | 7747 ft | 284 kts | 136° |
| 2026-04-13 21:13 | -25.23228 | -57.85849 | 7474 ft | 283 kts | 136° |
| 2026-04-13 21:14 | -25.24644 | -57.84348 | 7211 ft | 281 kts | 136° |
| 2026-04-13 21:14 | -25.26054 | -57.82853 | 6954 ft | 280 kts | 136° |
| 2026-04-13 21:14 | -25.27455 | -57.81368 | 6697 ft | 278 kts | 136° |
| 2026-04-13 21:14 | -25.28850 | -57.79888 | 6440 ft | 277 kts | 136° |
| 2026-04-13 21:15 | -25.30240 | -57.78413 | 6172 ft | 276 kts | 136° |
| 2026-04-13 21:15 | -25.31602 | -57.76967 | 5911 ft | 275 kts | 136° |
| 2026-04-13 21:15 | -25.32974 | -57.75509 | 5667 ft | 272 kts | 136° |
| 2026-04-13 21:15 | -25.34339 | -57.74060 | 5403 ft | 271 kts | 136° |
| 2026-04-13 21:16 | -25.35697 | -57.72617 | 5117 ft | 271 kts | 136° |
| 2026-04-13 21:16 | -25.37043 | -57.71188 | 4890 ft | 265 kts | 136° |
| 2026-04-13 21:16 | -25.38262 | -57.69690 | 4571 ft | 259 kts | 117° |
| 2026-04-13 21:16 | -25.38704 | -57.67817 | 4312 ft | 251 kts | 87° |
| 2026-04-13 21:17 | -25.38434 | -57.65980 | 4137 ft | 233 kts | 70° |
| 2026-04-13 21:17 | -25.37925 | -57.64371 | 4021 ft | 210 kts | 70° |
| 2026-04-13 21:17 | -25.37457 | -57.62914 | 3774 ft | 196 kts | 70° |
| 2026-04-13 21:17 | -25.37030 | -57.61570 | 3548 ft | 181 kts | 70° |
| 2026-04-13 21:18 | -25.36634 | -57.60311 | 3302 ft | 170 kts | 70° |
| 2026-04-13 21:18 | -25.36259 | -57.59107 | 3048 ft | 156 kts | 70° |
| 2026-04-13 21:18 | -25.35915 | -57.58000 | 2680 ft | 148 kts | 70° |
| 2026-04-13 21:18 | -25.35597 | -57.56975 | 2496 ft | 137 kts | 70° |
| 2026-04-13 21:19 | -25.35276 | -57.55944 | 2376 ft | 145 kts | 70° |
| 2026-04-13 21:19 | -25.34947 | -57.54882 | 2198 ft | 146 kts | 70° |
| 2026-04-13 21:19 | -25.34402 | -57.53969 | 2046 ft | 143 kts | 32° |
| 2026-04-13 21:19 | -25.33416 | -57.53751 | 1928 ft | 151 kts | 9° |
| 2026-04-13 21:20 | -25.32397 | -57.53557 | 1833 ft | 141 kts | 7° |
| 2026-04-13 21:20 | -25.31478 | -57.53502 | 1659 ft | 130 kts | 5° |
| 2026-04-13 21:20 | -25.30584 | -57.53439 | 1354 ft | 127 kts | 8° |
| 2026-04-13 21:20 | -25.29716 | -57.53297 | 1203 ft | 125 kts | 13° |
| 2026-04-13 21:21 | -25.28851 | -57.53098 | 968 ft | 126 kts | 15° |
| 2026-04-13 21:21 | -25.28012 | -57.52901 | 813 ft | 123 kts | 15° |
| 2026-04-13 21:21 | -25.27175 | -57.52671 | 682 ft | 127 kts | 14° |
| 2026-04-13 21:21 | -25.26323 | -57.52493 | 534 ft | 123 kts | 15° |
| 2026-04-13 21:22 | -25.25493 | -57.52283 | 362 ft | 122 kts | 14° |
| 2026-04-13 21:22 | -25.24696 | -57.52087 | 290 ft | 105 kts | 14° |
| 2026-04-13 21:22 | -25.24180 | -57.51964 | 284 ft | 59 kts | 12° |
| 2026-04-13 21:22 | -25.23791 | -57.51869 | 275 ft | 55 kts | 13° |
| 2026-04-13 21:23 | -25.23429 | -57.51782 | 271 ft | 51 kts | 12° |
| 2026-04-13 21:23 | -25.23154 | -57.51719 | 268 ft | 31 kts | 12° |
| 2026-04-13 21:23 | -25.23067 | -57.51592 | 267 ft | 23 kts | 98° |
| 2026-04-13 21:23 | -25.23164 | -57.51497 | 268 ft | 22 kts | 190° |
| 2026-04-13 21:24 | -25.23314 | -57.51537 | 270 ft | 23 kts | 194° |
| 2026-04-13 21:24 | -25.23482 | -57.51579 | 272 ft | 27 kts | 191° |
| 2026-04-13 21:24 | -25.23675 | -57.51623 | 275 ft | 30 kts | 192° |
| 2026-04-13 21:24 | -25.23882 | -57.51671 | 277 ft | 24 kts | 192° |
| 2026-04-13 21:25 | -25.24028 | -57.51622 | 279 ft | 23 kts | 147° |
| 2026-04-13 21:25 | -25.24118 | -57.51500 | 280 ft | 8 kts | 142° |
| 2026-04-13 21:25 | -25.24119 | -57.51499 | 280 ft | 0 kts | 142° |